Weather at Yarmouth Airport

Public forecast

Using degrees Celsius for public forecast. Weather courtesy of forecast.io.

Current aviation weather report (METAR) for Yarmouth Airport

Retrieved 2021/01/27 09:00 UTC (43 minutes ago):

CYQI 270900Z 08010KT 15SM OVC110 M01/M02 A2990 RMK AC8 SLP128

Aviation forecast (TAF) for Yarmouth Airport

Retrieved 2021/01/27 06:39 UTC (3 hours ago):

TAF CYQI 270538Z 2706/2718 07008KT P6SM BKN020 OVC160 TEMPO 2706/2718 SCT020 OVC160 RMK NXT FCST BY 271200Z